sensor_id;sensor_type;location;lat;lon;timestamp;temperature;humidity
27978;DHT22;15314;49.248;6.968;2023-07-20T00:00:51;17.20;91.40
27978;DHT22;15314;49.248;6.968;2023-07-20T00:01:53;17.20;91.50
27978;DHT22;15314;49.248;6.968;2023-07-20T00:03:13;17.30;91.50
27978;DHT22;15314;49.248;6.968;2023-07-20T00:04:16;17.20;91.90
27978;DHT22;15314;49.248;6.968;2023-07-20T00:05:17;17.30;91.90
27978;DHT22;15314;49.248;6.968;2023-07-20T00:06:25;17.20;92.20
27978;DHT22;15314;49.248;6.968;2023-07-20T00:07:27;17.20;92.40
27978;DHT22;15314;49.248;6.968;2023-07-20T00:08:29;17.10;92.20
27978;DHT22;15314;49.248;6.968;2023-07-20T00:09:29;17.00;92.20
27978;DHT22;15314;49.248;6.968;2023-07-20T00:10:30;17.10;92.30
27978;DHT22;15314;49.248;6.968;2023-07-20T00:11:31;17.10;92.50
27978;DHT22;15314;49.248;6.968;2023-07-20T00:12:31;17.00;92.20
27978;DHT22;15314;49.248;6.968;2023-07-20T00:13:32;17.10;92.40
27978;DHT22;15314;49.248;6.968;2023-07-20T00:14:33;17.00;92.60
27978;DHT22;15314;49.248;6.968;2023-07-20T00:15:33;16.90;92.80
27978;DHT22;15314;49.248;6.968;2023-07-20T00:16:34;16.90;92.60
27978;DHT22;15314;49.248;6.968;2023-07-20T00:17:35;16.90;93.00
27978;DHT22;15314;49.248;6.968;2023-07-20T00:18:37;16.90;92.80
27978;DHT22;15314;49.248;6.968;2023-07-20T00:19:38;16.90;92.90
27978;DHT22;15314;49.248;6.968;2023-07-20T00:20:39;16.80;93.00
27978;DHT22;15314;49.248;6.968;2023-07-20T00:21:39;16.90;93.20
27978;DHT22;15314;49.248;6.968;2023-07-20T00:22:41;16.80;93.10
27978;DHT22;15314;49.248;6.968;2023-07-20T00:23:41;16.90;93.10
27978;DHT22;15314;49.248;6.968;2023-07-20T00:24:42;16.90;93.10
27978;DHT22;15314;49.248;6.968;2023-07-20T00:25:43;16.90;93.10
27978;DHT22;15314;49.248;6.968;2023-07-20T00:26:43;16.80;93.30
27978;DHT22;15314;49.248;6.968;2023-07-20T00:27:44;16.80;93.10
27978;DHT22;15314;49.248;6.968;2023-07-20T00:28:45;16.80;93.30
27978;DHT22;15314;49.248;6.968;2023-07-20T00:29:45;16.80;93.40
27978;DHT22;15314;49.248;6.968;2023-07-20T00:30:46;16.70;93.60
27978;DHT22;15314;49.248;6.968;2023-07-20T00:31:47;16.70;93.40
27978;DHT22;15314;49.248;6.968;2023-07-20T00:32:47;16.60;93.80
27978;DHT22;15314;49.248;6.968;2023-07-20T00:33:48;16.60;94.00
27978;DHT22;15314;49.248;6.968;2023-07-20T00:34:49;16.60;94.20
27978;DHT22;15314;49.248;6.968;2023-07-20T00:35:49;16.60;94.30
27978;DHT22;15314;49.248;6.968;2023-07-20T00:36:50;16.50;94.50
27978;DHT22;15314;49.248;6.968;2023-07-20T00:37:50;16.50;94.60
27978;DHT22;15314;49.248;6.968;2023-07-20T00:38:51;16.50;94.60
27978;DHT22;15314;49.248;6.968;2023-07-20T00:39:53;16.40;94.60
27978;DHT22;15314;49.248;6.968;2023-07-20T00:40:54;16.40;95.10
27978;DHT22;15314;49.248;6.968;2023-07-20T00:41:54;16.40;94.80
27978;DHT22;15314;49.248;6.968;2023-07-20T00:42:55;16.40;94.50
27978;DHT22;15314;49.248;6.968;2023-07-20T00:43:56;16.40;94.80
27978;DHT22;15314;49.248;6.968;2023-07-20T00:44:56;16.40;94.80
27978;DHT22;15314;49.248;6.968;2023-07-20T00:45:57;16.40;94.80
27978;DHT22;15314;49.248;6.968;2023-07-20T00:46:58;16.40;94.70
27978;DHT22;15314;49.248;6.968;2023-07-20T00:48:01;16.40;94.90
27978;DHT22;15314;49.248;6.968;2023-07-20T00:49:01;16.40;95.10
27978;DHT22;15314;49.248;6.968;2023-07-20T00:50:03;16.40;94.90
27978;DHT22;15314;49.248;6.968;2023-07-20T00:51:04;16.30;95.20
27978;DHT22;15314;49.248;6.968;2023-07-20T00:52:07;16.30;95.40
27978;DHT22;15314;49.248;6.968;2023-07-20T00:53:08;16.20;95.40
27978;DHT22;15314;49.248;6.968;2023-07-20T00:54:09;16.10;95.30
27978;DHT22;15314;49.248;6.968;2023-07-20T00:55:10;16.10;95.10
27978;DHT22;15314;49.248;6.968;2023-07-20T00:56:11;16.20;95.60
27978;DHT22;15314;49.248;6.968;2023-07-20T00:57:16;16.20;95.90
27978;DHT22;15314;49.248;6.968;2023-07-20T00:58:18;16.10;95.50
27978;DHT22;15314;49.248;6.968;2023-07-20T00:59:18;16.20;95.80
27978;DHT22;15314;49.248;6.968;2023-07-20T01:00:20;16.10;96.30
27978;DHT22;15314;49.248;6.968;2023-07-20T01:01:21;16.10;96.20
27978;DHT22;15314;49.248;6.968;2023-07-20T01:02:22;16.10;96.20
27978;DHT22;15314;49.248;6.968;2023-07-20T01:03:22;16.10;96.50
27978;DHT22;15314;49.248;6.968;2023-07-20T01:04:23;16.00;96.60
27978;DHT22;15314;49.248;6.968;2023-07-20T01:05:33;16.00;96.80
27978;DHT22;15314;49.248;6.968;2023-07-20T01:07:52;16.00;96.80
27978;DHT22;15314;49.248;6.968;2023-07-20T01:09:12;16.00;96.70
27978;DHT22;15314;49.248;6.968;2023-07-20T01:10:16;16.00;96.00
27978;DHT22;15314;49.248;6.968;2023-07-20T01:11:34;16.00;95.80
27978;DHT22;15314;49.248;6.968;2023-07-20T01:12:42;16.10;96.00
27978;DHT22;15314;49.248;6.968;2023-07-20T01:13:43;16.10;95.90
27978;DHT22;15314;49.248;6.968;2023-07-20T01:14:45;16.10;96.40
27978;DHT22;15314;49.248;6.968;2023-07-20T01:15:57;16.10;96.70
27978;DHT22;15314;49.248;6.968;2023-07-20T01:17:02;16.00;96.30
27978;DHT22;15314;49.248;6.968;2023-07-20T01:18:03;16.10;96.60
27978;DHT22;15314;49.248;6.968;2023-07-20T01:19:04;16.10;96.70
27978;DHT22;15314;49.248;6.968;2023-07-20T01:20:13;16.00;96.20
27978;DHT22;15314;49.248;6.968;2023-07-20T01:21:26;16.10;96.50
27978;DHT22;15314;49.248;6.968;2023-07-20T01:24:13;16.20;96.60
27978;DHT22;15314;49.248;6.968;2023-07-20T01:28:53;16.30;96.50
27978;DHT22;15314;49.248;6.968;2023-07-20T01:31:28;16.30;96.20
27978;DHT22;15314;49.248;6.968;2023-07-20T01:32:31;16.40;96.20
27978;DHT22;15314;49.248;6.968;2023-07-20T01:33:33;16.50;96.00
27978;DHT22;15314;49.248;6.968;2023-07-20T01:34:35;16.40;96.10
27978;DHT22;15314;49.248;6.968;2023-07-20T01:35:37;16.50;96.00
27978;DHT22;15314;49.248;6.968;2023-07-20T01:36:39;16.60;95.60
27978;DHT22;15314;49.248;6.968;2023-07-20T01:37:43;16.60;95.80
27978;DHT22;15314;49.248;6.968;2023-07-20T01:38:46;16.60;96.00
27978;DHT22;15314;49.248;6.968;2023-07-20T01:39:47;16.60;96.00
27978;DHT22;15314;49.248;6.968;2023-07-20T01:40:48;16.60;96.00
27978;DHT22;15314;49.248;6.968;2023-07-20T01:41:49;16.60;96.20
27978;DHT22;15314;49.248;6.968;2023-07-20T01:42:51;16.60;96.20
27978;DHT22;15314;49.248;6.968;2023-07-20T01:43:52;16.70;96.20
27978;DHT22;15314;49.248;6.968;2023-07-20T01:44:53;16.70;96.20
27978;DHT22;15314;49.248;6.968;2023-07-20T01:45:54;16.60;96.10
27978;DHT22;15314;49.248;6.968;2023-07-20T01:46:54;16.70;96.40
27978;DHT22;15314;49.248;6.968;2023-07-20T01:47:55;16.60;96.60
27978;DHT22;15314;49.248;6.968;2023-07-20T01:48:57;16.50;96.50
27978;DHT22;15314;49.248;6.968;2023-07-20T01:49:58;16.60;96.70
27978;DHT22;15314;49.248;6.968;2023-07-20T01:50:58;16.60;96.60
27978;DHT22;15314;49.248;6.968;2023-07-20T01:51:59;16.60;96.60
27978;DHT22;15314;49.248;6.968;2023-07-20T01:53:00;16.50;96.80
27978;DHT22;15314;49.248;6.968;2023-07-20T01:54:01;16.60;96.90
27978;DHT22;15314;49.248;6.968;2023-07-20T01:55:02;16.60;97.10
27978;DHT22;15314;49.248;6.968;2023-07-20T01:56:04;16.60;96.90
27978;DHT22;15314;49.248;6.968;2023-07-20T01:57:05;16.60;97.10
27978;DHT22;15314;49.248;6.968;2023-07-20T01:58:06;16.60;97.00
27978;DHT22;15314;49.248;6.968;2023-07-20T01:59:07;16.60;97.00
27978;DHT22;15314;49.248;6.968;2023-07-20T02:00:08;16.60;97.10
27978;DHT22;15314;49.248;6.968;2023-07-20T02:01:10;16.70;97.10
27978;DHT22;15314;49.248;6.968;2023-07-20T02:02:10;16.60;96.40
27978;DHT22;15314;49.248;6.968;2023-07-20T02:03:11;16.70;96.40
27978;DHT22;15314;49.248;6.968;2023-07-20T02:04:12;16.70;96.30
27978;DHT22;15314;49.248;6.968;2023-07-20T02:05:13;16.60;96.00
27978;DHT22;15314;49.248;6.968;2023-07-20T02:06:14;16.60;96.20
27978;DHT22;15314;49.248;6.968;2023-07-20T02:07:14;16.50;96.20
27978;DHT22;15314;49.248;6.968;2023-07-20T02:08:15;16.50;96.30
27978;DHT22;15314;49.248;6.968;2023-07-20T02:09:16;16.50;96.30
27978;DHT22;15314;49.248;6.968;2023-07-20T02:10:17;16.50;96.40
27978;DHT22;15314;49.248;6.968;2023-07-20T02:11:17;16.50;96.40
27978;DHT22;15314;49.248;6.968;2023-07-20T02:12:18;16.50;96.50
27978;DHT22;15314;49.248;6.968;2023-07-20T02:13:19;16.50;96.30
27978;DHT22;15314;49.248;6.968;2023-07-20T02:14:19;16.50;96.50
27978;DHT22;15314;49.248;6.968;2023-07-20T02:15:20;16.50;96.50
27978;DHT22;15314;49.248;6.968;2023-07-20T02:16:21;16.50;96.50
27978;DHT22;15314;49.248;6.968;2023-07-20T02:17:22;16.50;96.30
27978;DHT22;15314;49.248;6.968;2023-07-20T02:18:22;16.50;96.30
27978;DHT22;15314;49.248;6.968;2023-07-20T02:19:25;16.50;96.70
27978;DHT22;15314;49.248;6.968;2023-07-20T02:20:26;16.40;96.80
27978;DHT22;15314;49.248;6.968;2023-07-20T02:21:28;16.40;96.90
27978;DHT22;15314;49.248;6.968;2023-07-20T02:22:28;16.40;97.00
27978;DHT22;15314;49.248;6.968;2023-07-20T02:23:29;16.40;96.90
27978;DHT22;15314;49.248;6.968;2023-07-20T02:24:29;16.30;96.80
27978;DHT22;15314;49.248;6.968;2023-07-20T02:25:30;16.40;96.80
27978;DHT22;15314;49.248;6.968;2023-07-20T02:26:31;16.40;96.80
27978;DHT22;15314;49.248;6.968;2023-07-20T02:27:31;16.40;96.80
27978;DHT22;15314;49.248;6.968;2023-07-20T02:28:32;16.40;96.90
27978;DHT22;15314;49.248;6.968;2023-07-20T02:29:33;16.40;96.90
27978;DHT22;15314;49.248;6.968;2023-07-20T02:30:36;16.30;96.90
27978;DHT22;15314;49.248;6.968;2023-07-20T02:31:38;16.30;96.70
27978;DHT22;15314;49.248;6.968;2023-07-20T02:32:39;16.30;96.80
27978;DHT22;15314;49.248;6.968;2023-07-20T02:33:40;16.30;97.10
27978;DHT22;15314;49.248;6.968;2023-07-20T02:34:41;16.30;97.00
27978;DHT22;15314;49.248;6.968;2023-07-20T02:35:41;16.30;97.20
27978;DHT22;15314;49.248;6.968;2023-07-20T02:36:42;16.30;97.20
27978;DHT22;15314;49.248;6.968;2023-07-20T02:37:43;16.20;97.30
27978;DHT22;15314;49.248;6.968;2023-07-20T02:38:44;16.20;97.20
27978;DHT22;15314;49.248;6.968;2023-07-20T02:39:44;16.20;97.10
27978;DHT22;15314;49.248;6.968;2023-07-20T02:40:45;16.30;97.10
27978;DHT22;15314;49.248;6.968;2023-07-20T02:41:46;16.30;97.20
27978;DHT22;15314;49.248;6.968;2023-07-20T02:42:46;16.20;97.10
27978;DHT22;15314;49.248;6.968;2023-07-20T02:43:47;16.20;97.20
27978;DHT22;15314;49.248;6.968;2023-07-20T02:44:48;16.30;97.20
27978;DHT22;15314;49.248;6.968;2023-07-20T02:45:50;16.30;97.20
27978;DHT22;15314;49.248;6.968;2023-07-20T02:46:51;16.30;97.10
27978;DHT22;15314;49.248;6.968;2023-07-20T02:47:51;16.20;97.20
27978;DHT22;15314;49.248;6.968;2023-07-20T02:48:52;16.30;97.10
27978;DHT22;15314;49.248;6.968;2023-07-20T02:49:52;16.20;97.30
27978;DHT22;15314;49.248;6.968;2023-07-20T02:50:53;16.20;97.40
27978;DHT22;15314;49.248;6.968;2023-07-20T02:51:54;16.20;97.50
27978;DHT22;15314;49.248;6.968;2023-07-20T02:52:54;16.20;97.60
27978;DHT22;15314;49.248;6.968;2023-07-20T02:53:55;16.10;97.80
27978;DHT22;15314;49.248;6.968;2023-07-20T02:54:56;16.10;98.00
27978;DHT22;15314;49.248;6.968;2023-07-20T02:55:57;16.00;98.30
27978;DHT22;15314;49.248;6.968;2023-07-20T02:56:57;15.90;98.50
27978;DHT22;15314;49.248;6.968;2023-07-20T02:57:58;15.90;98.60
27978;DHT22;15314;49.248;6.968;2023-07-20T02:59:01;15.80;98.90
27978;DHT22;15314;49.248;6.968;2023-07-20T03:00:03;15.80;99.10
27978;DHT22;15314;49.248;6.968;2023-07-20T03:01:06;15.70;99.20
27978;DHT22;15314;49.248;6.968;2023-07-20T03:02:07;15.70;99.40
27978;DHT22;15314;49.248;6.968;2023-07-20T03:03:10;15.60;99.60
27978;DHT22;15314;49.248;6.968;2023-07-20T03:04:10;15.60;99.80
27978;DHT22;15314;49.248;6.968;2023-07-20T03:05:11;15.60;99.90
27978;DHT22;15314;49.248;6.968;2023-07-20T03:06:15;15.60;99.90
27978;DHT22;15314;49.248;6.968;2023-07-20T03:07:16;15.60;99.90
27978;DHT22;15314;49.248;6.968;2023-07-20T03:08:16;15.60;99.90
27978;DHT22;15314;49.248;6.968;2023-07-20T03:09:17;15.50;99.90
27978;DHT22;15314;49.248;6.968;2023-07-20T03:10:18;15.50;99.90
27978;DHT22;15314;49.248;6.968;2023-07-20T03:11:20;15.50;99.90
27978;DHT22;15314;49.248;6.968;2023-07-20T03:12:21;15.50;99.90
27978;DHT22;15314;49.248;6.968;2023-07-20T03:13:22;15.50;99.90
27978;DHT22;15314;49.248;6.968;2023-07-20T03:14:24;15.50;99.90
27978;DHT22;15314;49.248;6.968;2023-07-20T03:15:25;15.50;99.90
27978;DHT22;15314;49.248;6.968;2023-07-20T03:16:26;15.50;99.90
27978;DHT22;15314;49.248;6.968;2023-07-20T03:17:27;15.50;99.90
27978;DHT22;15314;49.248;6.968;2023-07-20T03:18:27;15.50;99.90
27978;DHT22;15314;49.248;6.968;2023-07-20T03:19:28;15.50;99.90
27978;DHT22;15314;49.248;6.968;2023-07-20T03:20:28;15.50;99.90
27978;DHT22;15314;49.248;6.968;2023-07-20T03:21:29;15.50;99.90
27978;DHT22;15314;49.248;6.968;2023-07-20T03:22:30;15.50;99.90
27978;DHT22;15314;49.248;6.968;2023-07-20T03:23:31;15.50;99.90
27978;DHT22;15314;49.248;6.968;2023-07-20T03:24:31;15.50;99.90
27978;DHT22;15314;49.248;6.968;2023-07-20T03:25:32;15.50;99.90
27978;DHT22;15314;49.248;6.968;2023-07-20T03:26:34;15.50;99.90
27978;DHT22;15314;49.248;6.968;2023-07-20T03:27:35;15.50;99.90
27978;DHT22;15314;49.248;6.968;2023-07-20T03:28:36;15.40;99.90
27978;DHT22;15314;49.248;6.968;2023-07-20T03:29:38;15.40;99.90
27978;DHT22;15314;49.248;6.968;2023-07-20T03:30:38;15.50;99.90
27978;DHT22;15314;49.248;6.968;2023-07-20T03:31:39;15.40;99.90
27978;DHT22;15314;49.248;6.968;2023-07-20T03:32:40;15.50;99.90
27978;DHT22;15314;49.248;6.968;2023-07-20T03:33:40;15.40;99.90
27978;DHT22;15314;49.248;6.968;2023-07-20T03:34:41;15.30;99.90
27978;DHT22;15314;49.248;6.968;2023-07-20T03:35:42;15.30;99.90
27978;DHT22;15314;49.248;6.968;2023-07-20T03:36:43;15.30;99.90
27978;DHT22;15314;49.248;6.968;2023-07-20T03:37:44;15.30;99.90
27978;DHT22;15314;49.248;6.968;2023-07-20T03:38:45;15.20;99.90
27978;DHT22;15314;49.248;6.968;2023-07-20T03:39:45;15.30;99.90
27978;DHT22;15314;49.248;6.968;2023-07-20T03:40:53;15.20;99.90
27978;DHT22;15314;49.248;6.968;2023-07-20T03:41:54;15.20;99.90
27978;DHT22;15314;49.248;6.968;2023-07-20T03:42:55;15.20;99.90
27978;DHT22;15314;49.248;6.968;2023-07-20T03:43:55;15.20;99.90
27978;DHT22;15314;49.248;6.968;2023-07-20T03:44:56;15.20;99.90
27978;DHT22;15314;49.248;6.968;2023-07-20T03:45:57;15.20;99.90
27978;DHT22;15314;49.248;6.968;2023-07-20T03:46:58;15.20;99.90
27978;DHT22;15314;49.248;6.968;2023-07-20T03:47:58;15.10;99.90
27978;DHT22;15314;49.248;6.968;2023-07-20T03:48:59;15.00;99.90
27978;DHT22;15314;49.248;6.968;2023-07-20T03:50:00;14.90;99.90
27978;DHT22;15314;49.248;6.968;2023-07-20T03:51:00;14.80;99.90
27978;DHT22;15314;49.248;6.968;2023-07-20T03:52:01;14.70;99.90
27978;DHT22;15314;49.248;6.968;2023-07-20T03:53:03;14.70;99.90
27978;DHT22;15314;49.248;6.968;2023-07-20T03:54:04;14.70;99.90
27978;DHT22;15314;49.248;6.968;2023-07-20T03:55:05;14.70;99.90
27978;DHT22;15314;49.248;6.968;2023-07-20T03:56:06;14.70;99.90
27978;DHT22;15314;49.248;6.968;2023-07-20T03:57:07;14.70;99.90
27978;DHT22;15314;49.248;6.968;2023-07-20T03:58:07;14.70;99.90
27978;DHT22;15314;49.248;6.968;2023-07-20T03:59:08;14.70;99.90
27978;DHT22;15314;49.248;6.968;2023-07-20T04:00:09;14.70;99.90
27978;DHT22;15314;49.248;6.968;2023-07-20T04:01:10;14.60;99.90
27978;DHT22;15314;49.248;6.968;2023-07-20T04:02:11;14.60;99.90
27978;DHT22;15314;49.248;6.968;2023-07-20T04:03:12;14.70;99.90
27978;DHT22;15314;49.248;6.968;2023-07-20T04:04:16;14.70;99.90
27978;DHT22;15314;49.248;6.968;2023-07-20T04:05:17;14.70;99.90
27978;DHT22;15314;49.248;6.968;2023-07-20T04:06:17;14.70;99.90
27978;DHT22;15314;49.248;6.968;2023-07-20T04:07:18;14.60;99.90
27978;DHT22;15314;49.248;6.968;2023-07-20T04:08:19;14.60;99.90
27978;DHT22;15314;49.248;6.968;2023-07-20T04:09:19;14.50;99.90
27978;DHT22;15314;49.248;6.968;2023-07-20T04:10:20;14.50;99.90
27978;DHT22;15314;49.248;6.968;2023-07-20T04:11:20;14.50;99.90
27978;DHT22;15314;49.248;6.968;2023-07-20T04:12:21;14.50;99.90
27978;DHT22;15314;49.248;6.968;2023-07-20T04:13:22;14.50;99.90
27978;DHT22;15314;49.248;6.968;2023-07-20T04:14:22;14.50;99.90
27978;DHT22;15314;49.248;6.968;2023-07-20T04:15:23;14.50;99.90
27978;DHT22;15314;49.248;6.968;2023-07-20T04:16:24;14.60;99.90
27978;DHT22;15314;49.248;6.968;2023-07-20T04:17:24;14.60;99.90
27978;DHT22;15314;49.248;6.968;2023-07-20T04:18:25;14.70;99.90
27978;DHT22;15314;49.248;6.968;2023-07-20T04:19:26;14.70;99.90
27978;DHT22;15314;49.248;6.968;2023-07-20T04:20:26;14.70;99.90
27978;DHT22;15314;49.248;6.968;2023-07-20T04:21:27;14.70;99.90
27978;DHT22;15314;49.248;6.968;2023-07-20T04:22:28;14.70;99.90
27978;DHT22;15314;49.248;6.968;2023-07-20T04:23:29;14.80;99.90
27978;DHT22;15314;49.248;6.968;2023-07-20T04:24:30;14.90;99.90
27978;DHT22;15314;49.248;6.968;2023-07-20T04:25:30;14.90;99.90
27978;DHT22;15314;49.248;6.968;2023-07-20T04:26:39;14.90;99.90
27978;DHT22;15314;49.248;6.968;2023-07-20T04:27:39;15.00;99.90
27978;DHT22;15314;49.248;6.968;2023-07-20T04:28:41;15.00;99.90
27978;DHT22;15314;49.248;6.968;2023-07-20T04:29:42;15.00;99.90
27978;DHT22;15314;49.248;6.968;2023-07-20T04:30:43;15.10;99.90
27978;DHT22;15314;49.248;6.968;2023-07-20T04:31:44;15.00;99.90
27978;DHT22;15314;49.248;6.968;2023-07-20T04:32:45;15.10;99.90
27978;DHT22;15314;49.248;6.968;2023-07-20T04:33:46;15.10;99.90
27978;DHT22;15314;49.248;6.968;2023-07-20T04:34:47;15.20;99.90
27978;DHT22;15314;49.248;6.968;2023-07-20T04:35:54;15.20;99.90
27978;DHT22;15314;49.248;6.968;2023-07-20T04:36:55;15.30;99.90
27978;DHT22;15314;49.248;6.968;2023-07-20T04:37:55;15.30;99.90
27978;DHT22;15314;49.248;6.968;2023-07-20T04:38:56;15.30;99.90
27978;DHT22;15314;49.248;6.968;2023-07-20T04:39:57;15.40;99.90
27978;DHT22;15314;49.248;6.968;2023-07-20T04:40:57;15.40;99.90
27978;DHT22;15314;49.248;6.968;2023-07-20T04:41:58;15.40;99.90
27978;DHT22;15314;49.248;6.968;2023-07-20T04:42:59;15.50;99.90
27978;DHT22;15314;49.248;6.968;2023-07-20T04:43:59;15.50;99.90
27978;DHT22;15314;49.248;6.968;2023-07-20T04:45:00;15.50;99.90
27978;DHT22;15314;49.248;6.968;2023-07-20T04:46:01;15.50;99.90
27978;DHT22;15314;49.248;6.968;2023-07-20T04:47:01;15.60;99.90
27978;DHT22;15314;49.248;6.968;2023-07-20T04:48:04;15.50;99.90
27978;DHT22;15314;49.248;6.968;2023-07-20T04:49:05;15.60;99.90
27978;DHT22;15314;49.248;6.968;2023-07-20T04:50:06;15.60;99.90
27978;DHT22;15314;49.248;6.968;2023-07-20T04:51:07;15.60;99.90
27978;DHT22;15314;49.248;6.968;2023-07-20T04:52:07;15.60;99.90
27978;DHT22;15314;49.248;6.968;2023-07-20T04:53:17;15.60;99.90
27978;DHT22;15314;49.248;6.968;2023-07-20T04:54:17;15.70;99.90
27978;DHT22;15314;49.248;6.968;2023-07-20T04:55:19;15.60;99.90
27978;DHT22;15314;49.248;6.968;2023-07-20T04:56:20;15.70;99.90
27978;DHT22;15314;49.248;6.968;2023-07-20T04:57:23;15.70;99.90
27978;DHT22;15314;49.248;6.968;2023-07-20T04:58:24;15.80;99.90
27978;DHT22;15314;49.248;6.968;2023-07-20T04:59:25;15.80;99.90
27978;DHT22;15314;49.248;6.968;2023-07-20T05:00:26;15.80;99.90
27978;DHT22;15314;49.248;6.968;2023-07-20T05:01:26;15.90;99.90
27978;DHT22;15314;49.248;6.968;2023-07-20T05:02:27;15.90;99.90
27978;DHT22;15314;49.248;6.968;2023-07-20T05:03:28;15.90;99.90
27978;DHT22;15314;49.248;6.968;2023-07-20T05:04:28;16.00;99.90
27978;DHT22;15314;49.248;6.968;2023-07-20T05:05:29;16.00;99.90
27978;DHT22;15314;49.248;6.968;2023-07-20T05:06:30;16.00;99.90
27978;DHT22;15314;49.248;6.968;2023-07-20T05:07:30;16.10;99.90
27978;DHT22;15314;49.248;6.968;2023-07-20T05:08:31;16.10;99.90
27978;DHT22;15314;49.248;6.968;2023-07-20T05:09:32;16.10;99.90
27978;DHT22;15314;49.248;6.968;2023-07-20T05:10:32;16.10;99.90
27978;DHT22;15314;49.248;6.968;2023-07-20T05:11:33;16.00;99.90
27978;DHT22;15314;49.248;6.968;2023-07-20T05:12:34;16.10;99.90
27978;DHT22;15314;49.248;6.968;2023-07-20T05:13:34;16.10;99.90
27978;DHT22;15314;49.248;6.968;2023-07-20T05:14:35;16.10;99.90
27978;DHT22;15314;49.248;6.968;2023-07-20T05:15:35;16.10;99.90
27978;DHT22;15314;49.248;6.968;2023-07-20T05:16:36;16.20;99.90
27978;DHT22;15314;49.248;6.968;2023-07-20T05:17:37;16.20;99.90
27978;DHT22;15314;49.248;6.968;2023-07-20T05:18:38;16.20;99.90
27978;DHT22;15314;49.248;6.968;2023-07-20T05:19:38;16.20;99.90
27978;DHT22;15314;49.248;6.968;2023-07-20T05:20:39;16.30;99.90
27978;DHT22;15314;49.248;6.968;2023-07-20T05:21:40;16.30;99.90
27978;DHT22;15314;49.248;6.968;2023-07-20T05:22:41;16.30;99.90
27978;DHT22;15314;49.248;6.968;2023-07-20T05:23:42;16.30;99.90
27978;DHT22;15314;49.248;6.968;2023-07-20T05:24:43;16.30;99.90
27978;DHT22;15314;49.248;6.968;2023-07-20T05:25:44;16.30;99.90
27978;DHT22;15314;49.248;6.968;2023-07-20T05:26:44;16.30;99.90
27978;DHT22;15314;49.248;6.968;2023-07-20T05:27:45;16.30;99.90
27978;DHT22;15314;49.248;6.968;2023-07-20T05:28:49;16.40;99.90
27978;DHT22;15314;49.248;6.968;2023-07-20T05:29:49;16.40;99.90
27978;DHT22;15314;49.248;6.968;2023-07-20T05:30:51;16.50;99.90
27978;DHT22;15314;49.248;6.968;2023-07-20T05:31:54;16.50;99.90
27978;DHT22;15314;49.248;6.968;2023-07-20T05:32:55;16.50;99.90
27978;DHT22;15314;49.248;6.968;2023-07-20T05:33:56;16.50;99.90
27978;DHT22;15314;49.248;6.968;2023-07-20T05:34:56;16.60;99.90
27978;DHT22;15314;49.248;6.968;2023-07-20T05:35:57;16.60;99.90
27978;DHT22;15314;49.248;6.968;2023-07-20T05:36:58;16.60;99.90
27978;DHT22;15314;49.248;6.968;2023-07-20T05:37:58;16.70;99.90
27978;DHT22;15314;49.248;6.968;2023-07-20T05:38:59;16.70;99.90
27978;DHT22;15314;49.248;6.968;2023-07-20T05:40:00;16.80;99.90
27978;DHT22;15314;49.248;6.968;2023-07-20T05:41:00;16.90;99.90
27978;DHT22;15314;49.248;6.968;2023-07-20T05:42:02;16.90;99.90
27978;DHT22;15314;49.248;6.968;2023-07-20T05:43:03;16.90;99.90
27978;DHT22;15314;49.248;6.968;2023-07-20T05:44:03;16.90;99.90
27978;DHT22;15314;49.248;6.968;2023-07-20T05:45:05;16.90;99.70
27978;DHT22;15314;49.248;6.968;2023-07-20T05:46:05;16.90;99.70
27978;DHT22;15314;49.248;6.968;2023-07-20T05:47:06;17.00;99.70
27978;DHT22;15314;49.248;6.968;2023-07-20T05:48:07;17.10;99.60
27978;DHT22;15314;49.248;6.968;2023-07-20T05:49:10;17.10;99.50
27978;DHT22;15314;49.248;6.968;2023-07-20T05:50:11;17.20;99.50
27978;DHT22;15314;49.248;6.968;2023-07-20T05:51:11;17.20;99.50
27978;DHT22;15314;49.248;6.968;2023-07-20T05:52:12;17.10;99.20
27978;DHT22;15314;49.248;6.968;2023-07-20T05:53:13;17.30;99.10
27978;DHT22;15314;49.248;6.968;2023-07-20T05:54:16;17.20;99.10
27978;DHT22;15314;49.248;6.968;2023-07-20T05:55:17;17.30;99.30
27978;DHT22;15314;49.248;6.968;2023-07-20T05:56:18;17.30;99.10
27978;DHT22;15314;49.248;6.968;2023-07-20T05:57:18;17.40;99.20
27978;DHT22;15314;49.248;6.968;2023-07-20T05:58:19;17.40;99.10
27978;DHT22;15314;49.248;6.968;2023-07-20T05:59:20;17.40;99.00
27978;DHT22;15314;49.248;6.968;2023-07-20T06:00:21;17.50;98.90
27978;DHT22;15314;49.248;6.968;2023-07-20T06:01:26;17.40;99.10
27978;DHT22;15314;49.248;6.968;2023-07-20T06:02:28;17.40;98.90
27978;DHT22;15314;49.248;6.968;2023-07-20T06:03:29;17.40;98.90
27978;DHT22;15314;49.248;6.968;2023-07-20T06:04:29;17.50;98.90
27978;DHT22;15314;49.248;6.968;2023-07-20T06:05:30;17.50;99.10
27978;DHT22;15314;49.248;6.968;2023-07-20T06:06:31;17.50;98.80
27978;DHT22;15314;49.248;6.968;2023-07-20T06:07:35;17.50;98.70
27978;DHT22;15314;49.248;6.968;2023-07-20T06:08:35;17.50;98.70
27978;DHT22;15314;49.248;6.968;2023-07-20T06:09:36;17.50;98.90
27978;DHT22;15314;49.248;6.968;2023-07-20T06:10:37;17.50;99.10
27978;DHT22;15314;49.248;6.968;2023-07-20T06:11:40;17.50;99.00
27978;DHT22;15314;49.248;6.968;2023-07-20T06:12:41;17.60;98.90
27978;DHT22;15314;49.248;6.968;2023-07-20T06:13:42;17.60;98.70
27978;DHT22;15314;49.248;6.968;2023-07-20T06:14:44;17.70;98.80
27978;DHT22;15314;49.248;6.968;2023-07-20T06:15:44;17.70;98.90
27978;DHT22;15314;49.248;6.968;2023-07-20T06:16:45;17.80;98.80
27978;DHT22;15314;49.248;6.968;2023-07-20T06:17:46;17.90;98.70
27978;DHT22;15314;49.248;6.968;2023-07-20T06:18:46;17.90;98.70
27978;DHT22;15314;49.248;6.968;2023-07-20T06:19:47;18.00;98.80
27978;DHT22;15314;49.248;6.968;2023-07-20T06:20:51;18.00;98.70
27978;DHT22;15314;49.248;6.968;2023-07-20T06:21:52;18.10;98.60
27978;DHT22;15314;49.248;6.968;2023-07-20T06:22:52;18.10;98.30
27978;DHT22;15314;49.248;6.968;2023-07-20T06:23:53;18.10;98.00
27978;DHT22;15314;49.248;6.968;2023-07-20T06:24:54;18.10;97.90
27978;DHT22;15314;49.248;6.968;2023-07-20T06:25:55;18.20;97.80
27978;DHT22;15314;49.248;6.968;2023-07-20T06:26:58;18.30;97.70
27978;DHT22;15314;49.248;6.968;2023-07-20T06:27:59;18.40;97.80
27978;DHT22;15314;49.248;6.968;2023-07-20T06:29:00;18.50;97.80
27978;DHT22;15314;49.248;6.968;2023-07-20T06:30:00;18.50;97.80
27978;DHT22;15314;49.248;6.968;2023-07-20T06:31:02;18.50;97.50
27978;DHT22;15314;49.248;6.968;2023-07-20T06:32:03;18.60;97.50
27978;DHT22;15314;49.248;6.968;2023-07-20T06:33:03;18.50;97.10
27978;DHT22;15314;49.248;6.968;2023-07-20T06:34:04;18.50;97.20
27978;DHT22;15314;49.248;6.968;2023-07-20T06:35:05;18.50;97.20
27978;DHT22;15314;49.248;6.968;2023-07-20T06:36:06;18.50;97.20